sensor_id;sensor_type;location;lat;lon;timestamp;P1;durP1;ratioP1;P2;durP2;ratioP2
12554;SDS011;6343;50.868;4.700;2023-05-02T00:02:14;32.87;;;15.47;;
12554;SDS011;6343;50.868;4.700;2023-05-02T00:04:40;26.10;;;14.67;;
12554;SDS011;6343;50.868;4.700;2023-05-02T00:07:06;31.67;;;15.17;;
12554;SDS011;6343;50.868;4.700;2023-05-02T00:09:33;27.73;;;14.70;;
12554;SDS011;6343;50.868;4.700;2023-05-02T00:11:59;27.27;;;14.90;;
12554;SDS011;6343;50.868;4.700;2023-05-02T00:14:26;31.57;;;15.23;;
12554;SDS011;6343;50.868;4.700;2023-05-02T00:16:52;31.80;;;15.57;;
12554;SDS011;6343;50.868;4.700;2023-05-02T00:19:18;33.17;;;16.63;;
12554;SDS011;6343;50.868;4.700;2023-05-02T00:21:47;28.70;;;15.37;;
12554;SDS011;6343;50.868;4.700;2023-05-02T00:24:14;30.40;;;16.73;;
12554;SDS011;6343;50.868;4.700;2023-05-02T00:26:40;30.70;;;17.77;;
12554;SDS011;6343;50.868;4.700;2023-05-02T00:29:06;32.30;;;18.43;;
12554;SDS011;6343;50.868;4.700;2023-05-02T00:31:32;36.97;;;19.40;;
12554;SDS011;6343;50.868;4.700;2023-05-02T00:33:59;39.00;;;20.17;;
12554;SDS011;6343;50.868;4.700;2023-05-02T00:36:25;38.07;;;19.60;;
12554;SDS011;6343;50.868;4.700;2023-05-02T00:38:52;40.77;;;19.73;;
12554;SDS011;6343;50.868;4.700;2023-05-02T00:41:18;35.17;;;18.90;;
12554;SDS011;6343;50.868;4.700;2023-05-02T00:43:44;40.00;;;19.83;;
12554;SDS011;6343;50.868;4.700;2023-05-02T00:46:10;37.57;;;19.97;;
12554;SDS011;6343;50.868;4.700;2023-05-02T00:48:37;32.47;;;18.87;;
12554;SDS011;6343;50.868;4.700;2023-05-02T00:51:03;33.30;;;18.83;;
12554;SDS011;6343;50.868;4.700;2023-05-02T00:53:30;36.87;;;19.23;;
12554;SDS011;6343;50.868;4.700;2023-05-02T00:55:57;36.50;;;19.63;;
12554;SDS011;6343;50.868;4.700;2023-05-02T00:58:23;39.17;;;20.53;;
12554;SDS011;6343;50.868;4.700;2023-05-02T01:03:19;36.37;;;20.80;;
12554;SDS011;6343;50.868;4.700;2023-05-02T01:05:58;37.53;;;20.63;;
12554;SDS011;6343;50.868;4.700;2023-05-02T01:08:33;41.90;;;21.57;;
12554;SDS011;6343;50.868;4.700;2023-05-02T01:11:20;39.70;;;21.23;;
12554;SDS011;6343;50.868;4.700;2023-05-02T01:13:48;37.27;;;21.57;;
12554;SDS011;6343;50.868;4.700;2023-05-02T01:16:16;41.83;;;21.43;;
12554;SDS011;6343;50.868;4.700;2023-05-02T01:18:44;44.47;;;22.13;;
12554;SDS011;6343;50.868;4.700;2023-05-02T01:21:12;41.87;;;22.23;;
12554;SDS011;6343;50.868;4.700;2023-05-02T01:29:05;36.17;;;20.97;;
12554;SDS011;6343;50.868;4.700;2023-05-02T01:31:35;42.43;;;22.73;;
12554;SDS011;6343;50.868;4.700;2023-05-02T01:34:03;45.50;;;22.93;;
12554;SDS011;6343;50.868;4.700;2023-05-02T01:36:30;36.97;;;21.30;;
12554;SDS011;6343;50.868;4.700;2023-05-02T01:38:56;39.80;;;21.90;;
12554;SDS011;6343;50.868;4.700;2023-05-02T01:41:27;40.67;;;22.20;;
12554;SDS011;6343;50.868;4.700;2023-05-02T01:43:56;41.67;;;21.63;;
12554;SDS011;6343;50.868;4.700;2023-05-02T01:46:24;37.73;;;21.33;;
12554;SDS011;6343;50.868;4.700;2023-05-02T01:48:51;42.30;;;22.40;;
12554;SDS011;6343;50.868;4.700;2023-05-02T01:51:17;40.40;;;23.00;;
12554;SDS011;6343;50.868;4.700;2023-05-02T01:53:45;40.23;;;21.87;;
12554;SDS011;6343;50.868;4.700;2023-05-02T01:56:14;43.97;;;22.60;;
12554;SDS011;6343;50.868;4.700;2023-05-02T01:58:42;40.20;;;22.03;;
12554;SDS011;6343;50.868;4.700;2023-05-02T02:01:10;41.83;;;21.70;;
12554;SDS011;6343;50.868;4.700;2023-05-02T02:03:36;46.37;;;23.43;;
12554;SDS011;6343;50.868;4.700;2023-05-02T02:06:02;40.90;;;22.53;;
12554;SDS011;6343;50.868;4.700;2023-05-02T02:08:29;41.90;;;22.17;;
12554;SDS011;6343;50.868;4.700;2023-05-02T02:10:59;38.37;;;21.63;;
12554;SDS011;6343;50.868;4.700;2023-05-02T02:13:29;38.43;;;21.60;;
12554;SDS011;6343;50.868;4.700;2023-05-02T02:15:58;40.20;;;22.73;;
12554;SDS011;6343;50.868;4.700;2023-05-02T02:18:26;44.03;;;23.30;;
12554;SDS011;6343;50.868;4.700;2023-05-02T02:20:54;40.87;;;21.77;;
12554;SDS011;6343;50.868;4.700;2023-05-02T02:23:22;39.47;;;22.67;;
12554;SDS011;6343;50.868;4.700;2023-05-02T02:25:51;40.30;;;22.37;;
12554;SDS011;6343;50.868;4.700;2023-05-02T02:28:18;46.30;;;22.53;;
12554;SDS011;6343;50.868;4.700;2023-05-02T02:30:44;43.00;;;22.47;;
12554;SDS011;6343;50.868;4.700;2023-05-02T02:33:10;39.47;;;22.13;;
12554;SDS011;6343;50.868;4.700;2023-05-02T02:35:37;39.80;;;22.30;;
12554;SDS011;6343;50.868;4.700;2023-05-02T02:38:25;42.47;;;23.57;;
12554;SDS011;6343;50.868;4.700;2023-05-02T02:41:05;39.60;;;21.97;;
12554;SDS011;6343;50.868;4.700;2023-05-02T02:48:49;38.70;;;21.50;;
12554;SDS011;6343;50.868;4.700;2023-05-02T02:51:27;38.97;;;20.57;;
12554;SDS011;6343;50.868;4.700;2023-05-02T02:54:07;39.57;;;21.47;;
12554;SDS011;6343;50.868;4.700;2023-05-02T02:56:36;39.33;;;21.23;;
12554;SDS011;6343;50.868;4.700;2023-05-02T02:59:11;39.23;;;20.50;;
12554;SDS011;6343;50.868;4.700;2023-05-02T03:01:38;37.17;;;20.40;;
12554;SDS011;6343;50.868;4.700;2023-05-02T03:04:07;32.40;;;19.00;;
12554;SDS011;6343;50.868;4.700;2023-05-02T03:06:35;39.07;;;20.47;;
12554;SDS011;6343;50.868;4.700;2023-05-02T03:09:01;34.90;;;20.77;;
12554;SDS011;6343;50.868;4.700;2023-05-02T03:11:28;38.83;;;21.60;;
12554;SDS011;6343;50.868;4.700;2023-05-02T03:13:54;36.70;;;21.20;;
12554;SDS011;6343;50.868;4.700;2023-05-02T03:16:36;39.13;;;21.60;;
12554;SDS011;6343;50.868;4.700;2023-05-02T03:19:02;36.30;;;21.63;;
12554;SDS011;6343;50.868;4.700;2023-05-02T03:21:30;42.40;;;22.40;;
12554;SDS011;6343;50.868;4.700;2023-05-02T03:24:00;48.80;;;23.90;;
12554;SDS011;6343;50.868;4.700;2023-05-02T03:26:26;45.17;;;24.10;;
12554;SDS011;6343;50.868;4.700;2023-05-02T03:28:53;39.53;;;22.57;;
12554;SDS011;6343;50.868;4.700;2023-05-02T03:31:19;41.30;;;22.73;;
12554;SDS011;6343;50.868;4.700;2023-05-02T03:33:47;42.33;;;24.30;;
12554;SDS011;6343;50.868;4.700;2023-05-02T03:36:13;42.93;;;23.17;;
12554;SDS011;6343;50.868;4.700;2023-05-02T03:38:39;42.47;;;24.20;;
12554;SDS011;6343;50.868;4.700;2023-05-02T03:41:05;41.73;;;22.33;;
12554;SDS011;6343;50.868;4.700;2023-05-02T03:43:31;41.50;;;22.40;;
12554;SDS011;6343;50.868;4.700;2023-05-02T03:46:02;38.67;;;22.80;;
12554;SDS011;6343;50.868;4.700;2023-05-02T03:48:29;39.43;;;21.80;;
12554;SDS011;6343;50.868;4.700;2023-05-02T03:50:55;37.50;;;21.00;;
12554;SDS011;6343;50.868;4.700;2023-05-02T03:53:21;33.87;;;20.43;;
12554;SDS011;6343;50.868;4.700;2023-05-02T03:55:47;37.33;;;20.63;;
12554;SDS011;6343;50.868;4.700;2023-05-02T03:58:14;36.80;;;20.83;;
12554;SDS011;6343;50.868;4.700;2023-05-02T04:00:40;35.43;;;19.70;;
12554;SDS011;6343;50.868;4.700;2023-05-02T04:03:07;37.90;;;20.47;;
12554;SDS011;6343;50.868;4.700;2023-05-02T04:05:33;36.27;;;20.20;;
12554;SDS011;6343;50.868;4.700;2023-05-02T04:07:59;35.87;;;20.10;;
12554;SDS011;6343;50.868;4.700;2023-05-02T04:10:26;36.93;;;19.87;;
12554;SDS011;6343;50.868;4.700;2023-05-02T04:12:52;34.07;;;20.00;;
12554;SDS011;6343;50.868;4.700;2023-05-02T04:15:18;35.63;;;19.17;;
12554;SDS011;6343;50.868;4.700;2023-05-02T04:17:44;32.97;;;18.40;;
12554;SDS011;6343;50.868;4.700;2023-05-02T04:20:11;33.07;;;18.20;;
12554;SDS011;6343;50.868;4.700;2023-05-02T04:22:37;33.00;;;18.17;;
12554;SDS011;6343;50.868;4.700;2023-05-02T04:25:06;31.47;;;17.90;;
12554;SDS011;6343;50.868;4.700;2023-05-02T04:27:32;34.07;;;17.30;;
12554;SDS011;6343;50.868;4.700;2023-05-02T04:29:58;29.73;;;16.57;;
12554;SDS011;6343;50.868;4.700;2023-05-02T04:32:24;33.40;;;16.67;;
12554;SDS011;6343;50.868;4.700;2023-05-02T04:34:51;33.70;;;18.57;;
12554;SDS011;6343;50.868;4.700;2023-05-02T04:37:18;30.47;;;16.80;;
12554;SDS011;6343;50.868;4.700;2023-05-02T04:39:44;33.33;;;19.00;;
12554;SDS011;6343;50.868;4.700;2023-05-02T04:42:10;32.00;;;18.03;;
12554;SDS011;6343;50.868;4.700;2023-05-02T04:44:36;31.97;;;18.23;;
12554;SDS011;6343;50.868;4.700;2023-05-02T04:47:02;30.77;;;17.23;;
12554;SDS011;6343;50.868;4.700;2023-05-02T04:49:29;39.03;;;23.30;;
12554;SDS011;6343;50.868;4.700;2023-05-02T04:51:56;30.40;;;16.67;;
12554;SDS011;6343;50.868;4.700;2023-05-02T04:54:22;30.13;;;16.20;;
12554;SDS011;6343;50.868;4.700;2023-05-02T04:56:48;28.70;;;16.60;;
12554;SDS011;6343;50.868;4.700;2023-05-02T04:59:14;30.10;;;17.03;;
12554;SDS011;6343;50.868;4.700;2023-05-02T05:01:41;32.20;;;16.80;;
12554;SDS011;6343;50.868;4.700;2023-05-02T05:04:07;34.57;;;18.70;;
12554;SDS011;6343;50.868;4.700;2023-05-02T05:06:33;29.53;;;16.93;;
12554;SDS011;6343;50.868;4.700;2023-05-02T05:09:00;35.43;;;18.63;;
12554;SDS011;6343;50.868;4.700;2023-05-02T05:11:26;33.93;;;18.57;;
12554;SDS011;6343;50.868;4.700;2023-05-02T05:13:52;33.23;;;18.67;;
12554;SDS011;6343;50.868;4.700;2023-05-02T05:16:18;33.93;;;18.13;;
12554;SDS011;6343;50.868;4.700;2023-05-02T05:18:44;34.17;;;18.33;;
12554;SDS011;6343;50.868;4.700;2023-05-02T05:21:11;37.60;;;20.67;;
12554;SDS011;6343;50.868;4.700;2023-05-02T05:23:37;35.77;;;20.10;;
12554;SDS011;6343;50.868;4.700;2023-05-02T05:26:10;35.83;;;20.60;;
12554;SDS011;6343;50.868;4.700;2023-05-02T05:28:36;39.00;;;21.47;;
12554;SDS011;6343;50.868;4.700;2023-05-02T05:31:05;36.90;;;21.93;;
12554;SDS011;6343;50.868;4.700;2023-05-02T05:33:32;42.13;;;20.37;;
12554;SDS011;6343;50.868;4.700;2023-05-02T05:38:31;43.70;;;21.70;;
12554;SDS011;6343;50.868;4.700;2023-05-02T05:40:57;36.73;;;20.60;;
12554;SDS011;6343;50.868;4.700;2023-05-02T05:43:23;30.97;;;19.23;;
12554;SDS011;6343;50.868;4.700;2023-05-02T05:45:53;36.30;;;21.17;;
12554;SDS011;6343;50.868;4.700;2023-05-02T05:48:20;41.70;;;21.50;;
12554;SDS011;6343;50.868;4.700;2023-05-02T05:50:46;35.60;;;20.10;;
12554;SDS011;6343;50.868;4.700;2023-05-02T05:53:12;35.17;;;17.83;;
12554;SDS011;6343;50.868;4.700;2023-05-02T05:55:39;29.90;;;17.00;;
12554;SDS011;6343;50.868;4.700;2023-05-02T05:58:06;29.40;;;17.20;;
12554;SDS011;6343;50.868;4.700;2023-05-02T06:00:36;25.67;;;16.30;;
12554;SDS011;6343;50.868;4.700;2023-05-02T06:03:02;23.67;;;15.47;;
12554;SDS011;6343;50.868;4.700;2023-05-02T06:05:29;26.20;;;15.97;;
12554;SDS011;6343;50.868;4.700;2023-05-02T06:07:55;22.87;;;14.40;;
12554;SDS011;6343;50.868;4.700;2023-05-02T06:10:21;24.93;;;14.30;;
12554;SDS011;6343;50.868;4.700;2023-05-02T06:12:48;23.07;;;14.03;;
12554;SDS011;6343;50.868;4.700;2023-05-02T06:15:14;25.93;;;15.13;;
12554;SDS011;6343;50.868;4.700;2023-05-02T06:17:40;24.83;;;13.40;;
12554;SDS011;6343;50.868;4.700;2023-05-02T06:20:06;20.83;;;11.93;;
12554;SDS011;6343;50.868;4.700;2023-05-02T06:22:33;23.47;;;12.93;;
12554;SDS011;6343;50.868;4.700;2023-05-02T06:24:59;17.57;;;11.70;;
12554;SDS011;6343;50.868;4.700;2023-05-02T06:27:26;20.43;;;10.93;;
12554;SDS011;6343;50.868;4.700;2023-05-02T06:29:52;20.63;;;11.13;;
12554;SDS011;6343;50.868;4.700;2023-05-02T06:32:18;18.03;;;10.27;;
12554;SDS011;6343;50.868;4.700;2023-05-02T06:34:45;20.43;;;10.10;;
12554;SDS011;6343;50.868;4.700;2023-05-02T06:37:11;16.23;;;10.13;;
12554;SDS011;6343;50.868;4.700;2023-05-02T06:39:37;22.03;;;9.43;;
12554;SDS011;6343;50.868;4.700;2023-05-02T06:42:03;17.63;;;8.83;;
12554;SDS011;6343;50.868;4.700;2023-05-02T06:44:29;16.10;;;8.60;;
12554;SDS011;6343;50.868;4.700;2023-05-02T06:46:56;11.97;;;7.43;;
12554;SDS011;6343;50.868;4.700;2023-05-02T06:49:22;12.87;;;7.33;;
12554;SDS011;6343;50.868;4.700;2023-05-02T06:51:48;17.57;;;7.77;;
12554;SDS011;6343;50.868;4.700;2023-05-02T06:54:15;12.97;;;7.80;;
12554;SDS011;6343;50.868;4.700;2023-05-02T06:56:41;12.57;;;7.37;;
12554;SDS011;6343;50.868;4.700;2023-05-02T06:59:07;13.27;;;7.00;;
12554;SDS011;6343;50.868;4.700;2023-05-02T07:01:33;12.00;;;6.47;;
12554;SDS011;6343;50.868;4.700;2023-05-02T07:04:00;8.50;;;5.50;;
12554;SDS011;6343;50.868;4.700;2023-05-02T07:06:30;16.57;;;5.73;;
12554;SDS011;6343;50.868;4.700;2023-05-02T07:08:56;9.23;;;4.37;;
12554;SDS011;6343;50.868;4.700;2023-05-02T07:11:22;10.67;;;4.27;;
12554;SDS011;6343;50.868;4.700;2023-05-02T07:13:49;13.03;;;4.70;;
12554;SDS011;6343;50.868;4.700;2023-05-02T07:16:15;11.23;;;4.90;;
12554;SDS011;6343;50.868;4.700;2023-05-02T07:18:41;14.00;;;4.10;;
12554;SDS011;6343;50.868;4.700;2023-05-02T07:21:09;8.20;;;3.60;;
12554;SDS011;6343;50.868;4.700;2023-05-02T07:23:36;8.93;;;3.60;;
12554;SDS011;6343;50.868;4.700;2023-05-02T07:26:02;10.67;;;3.80;;
12554;SDS011;6343;50.868;4.700;2023-05-02T07:28:29;9.83;;;4.03;;
12554;SDS011;6343;50.868;4.700;2023-05-02T07:30:55;10.57;;;3.97;;
12554;SDS011;6343;50.868;4.700;2023-05-02T07:33:22;6.77;;;3.30;;
12554;SDS011;6343;50.868;4.700;2023-05-02T07:35:48;11.37;;;3.57;;
12554;SDS011;6343;50.868;4.700;2023-05-02T07:38:15;8.20;;;4.07;;
12554;SDS011;6343;50.868;4.700;2023-05-02T07:40:41;7.53;;;3.30;;
12554;SDS011;6343;50.868;4.700;2023-05-02T07:43:08;9.97;;;3.63;;
12554;SDS011;6343;50.868;4.700;2023-05-02T07:45:34;6.67;;;4.20;;
12554;SDS011;6343;50.868;4.700;2023-05-02T07:48:00;10.33;;;4.50;;
12554;SDS011;6343;50.868;4.700;2023-05-02T07:50:26;10.07;;;5.47;;
12554;SDS011;6343;50.868;4.700;2023-05-02T07:52:55;6.93;;;3.70;;
12554;SDS011;6343;50.868;4.700;2023-05-02T07:55:22;5.70;;;3.20;;
12554;SDS011;6343;50.868;4.700;2023-05-02T07:57:51;6.00;;;2.57;;
12554;SDS011;6343;50.868;4.700;2023-05-02T08:00:17;7.03;;;2.67;;
12554;SDS011;6343;50.868;4.700;2023-05-02T08:02:43;6.47;;;2.63;;
12554;SDS011;6343;50.868;4.700;2023-05-02T08:05:10;4.80;;;1.90;;
12554;SDS011;6343;50.868;4.700;2023-05-02T08:07:37;13.53;;;2.77;;
12554;SDS011;6343;50.868;4.700;2023-05-02T08:10:06;9.00;;;2.60;;
12554;SDS011;6343;50.868;4.700;2023-05-02T08:12:36;5.93;;;2.17;;
12554;SDS011;6343;50.868;4.700;2023-05-02T08:15:05;6.30;;;2.37;;
12554;SDS011;6343;50.868;4.700;2023-05-02T08:17:31;4.90;;;1.97;;
12554;SDS011;6343;50.868;4.700;2023-05-02T08:19:57;3.77;;;2.43;;
12554;SDS011;6343;50.868;4.700;2023-05-02T08:22:23;5.90;;;2.53;;
12554;SDS011;6343;50.868;4.700;2023-05-02T08:24:49;6.07;;;2.30;;
12554;SDS011;6343;50.868;4.700;2023-05-02T08:27:15;6.10;;;2.63;;
12554;SDS011;6343;50.868;4.700;2023-05-02T08:29:41;4.87;;;2.30;;
12554;SDS011;6343;50.868;4.700;2023-05-02T08:32:07;6.30;;;2.43;;
12554;SDS011;6343;50.868;4.700;2023-05-02T08:34:33;4.20;;;2.60;;
12554;SDS011;6343;50.868;4.700;2023-05-02T08:37:00;4.27;;;2.27;;
12554;SDS011;6343;50.868;4.700;2023-05-02T08:39:26;6.70;;;2.27;;
12554;SDS011;6343;50.868;4.700;2023-05-02T08:41:53;5.43;;;2.47;;
12554;SDS011;6343;50.868;4.700;2023-05-02T08:44:19;7.27;;;2.23;;
12554;SDS011;6343;50.868;4.700;2023-05-02T08:46:45;3.37;;;2.13;;
12554;SDS011;6343;50.868;4.700;2023-05-02T08:49:14;4.57;;;2.53;;
12554;SDS011;6343;50.868;4.700;2023-05-02T08:51:41;10.50;;;3.10;;
12554;SDS011;6343;50.868;4.700;2023-05-02T08:54:08;7.03;;;3.80;;
12554;SDS011;6343;50.868;4.700;2023-05-02T08:56:34;5.17;;;2.90;;
12554;SDS011;6343;50.868;4.700;2023-05-02T08:59:01;6.00;;;2.80;;
12554;SDS011;6343;50.868;4.700;2023-05-02T09:01:27;7.30;;;3.13;;
12554;SDS011;6343;50.868;4.700;2023-05-02T09:03:54;6.50;;;3.50;;
12554;SDS011;6343;50.868;4.700;2023-05-02T09:06:23;6.63;;;3.53;;
12554;SDS011;6343;50.868;4.700;2023-05-02T09:08:50;8.20;;;2.93;;
12554;SDS011;6343;50.868;4.700;2023-05-02T09:11:17;6.00;;;3.10;;
12554;SDS011;6343;50.868;4.700;2023-05-02T09:13:44;7.00;;;3.13;;
12554;SDS011;6343;50.868;4.700;2023-05-02T09:16:12;5.77;;;2.63;;
12554;SDS011;6343;50.868;4.700;2023-05-02T09:18:57;8.17;;;2.70;;
12554;SDS011;6343;50.868;4.700;2023-05-02T09:21:34;4.87;;;2.43;;
12554;SDS011;6343;50.868;4.700;2023-05-02T09:24:01;5.57;;;2.53;;
12554;SDS011;6343;50.868;4.700;2023-05-02T09:26:29;5.17;;;2.30;;
12554;SDS011;6343;50.868;4.700;2023-05-02T09:28:59;6.83;;;2.53;;
12554;SDS011;6343;50.868;4.700;2023-05-02T09:31:29;6.97;;;2.60;;
12554;SDS011;6343;50.868;4.700;2023-05-02T09:34:19;8.07;;;2.50;;
12554;SDS011;6343;50.868;4.700;2023-05-02T09:36:45;4.20;;;2.30;;
12554;SDS011;6343;50.868;4.700;2023-05-02T09:39:12;3.00;;;2.00;;
12554;SDS011;6343;50.868;4.700;2023-05-02T09:41:39;5.90;;;2.90;;
12554;SDS011;6343;50.868;4.700;2023-05-02T09:44:08;5.07;;;2.00;;
12554;SDS011;6343;50.868;4.700;2023-05-02T09:46:39;8.13;;;2.03;;
12554;SDS011;6343;50.868;4.700;2023-05-02T09:49:05;6.67;;;2.40;;
12554;SDS011;6343;50.868;4.700;2023-05-02T09:51:33;5.00;;;2.30;;
12554;SDS011;6343;50.868;4.700;2023-05-02T09:53:59;4.97;;;2.10;;
12554;SDS011;6343;50.868;4.700;2023-05-02T09:56:26;6.77;;;2.50;;
12554;SDS011;6343;50.868;4.700;2023-05-02T09:59:10;5.83;;;2.70;;
12554;SDS011;6343;50.868;4.700;2023-05-02T10:01:38;8.57;;;2.40;;
12554;SDS011;6343;50.868;4.700;2023-05-02T10:04:06;6.00;;;2.77;;
12554;SDS011;6343;50.868;4.700;2023-05-02T10:06:36;4.33;;;2.00;;
12554;SDS011;6343;50.868;4.700;2023-05-02T10:09:02;5.27;;;2.20;;
12554;SDS011;6343;50.868;4.700;2023-05-02T10:11:28;7.80;;;2.83;;
12554;SDS011;6343;50.868;4.700;2023-05-02T10:13:55;4.50;;;2.43;;
12554;SDS011;6343;50.868;4.700;2023-05-02T10:16:22;6.30;;;2.37;;
12554;SDS011;6343;50.868;4.700;2023-05-02T10:19:02;6.93;;;2.50;;
12554;SDS011;6343;50.868;4.700;2023-05-02T10:21:32;5.63;;;2.50;;
12554;SDS011;6343;50.868;4.700;2023-05-02T10:23:59;4.10;;;2.90;;
12554;SDS011;6343;50.868;4.700;2023-05-02T10:26:29;6.07;;;2.63;;
12554;SDS011;6343;50.868;4.700;2023-05-02T10:28:56;8.40;;;2.93;;
12554;SDS011;6343;50.868;4.700;2023-05-02T10:31:22;4.67;;;2.83;;
12554;SDS011;6343;50.868;4.700;2023-05-02T10:33:49;5.87;;;3.00;;
12554;SDS011;6343;50.868;4.700;2023-05-02T10:36:19;4.93;;;2.80;;
12554;SDS011;6343;50.868;4.700;2023-05-02T10:38:46;6.20;;;3.50;;
12554;SDS011;6343;50.868;4.700;2023-05-02T10:41:17;7.87;;;3.97;;
12554;SDS011;6343;50.868;4.700;2023-05-02T10:43:46;5.17;;;3.03;;
12554;SDS011;6343;50.868;4.700;2023-05-02T10:49:12;10.53;;;3.53;;
12554;SDS011;6343;50.868;4.700;2023-05-02T10:51:40;6.30;;;3.17;;
12554;SDS011;6343;50.868;4.700;2023-05-02T10:54:24;7.13;;;3.67;;
12554;SDS011;6343;50.868;4.700;2023-05-02T10:59:31;4.47;;;3.53;;
12554;SDS011;6343;50.868;4.700;2023-05-02T11:01:58;7.03;;;3.07;;
12554;SDS011;6343;50.868;4.700;2023-05-02T11:04:25;10.67;;;4.10;;
12554;SDS011;6343;50.868;4.700;2023-05-02T11:07:17;6.10;;;3.80;;
12554;SDS011;6343;50.868;4.700;2023-05-02T11:09:44;9.03;;;3.87;;
12554;SDS011;6343;50.868;4.700;2023-05-02T11:12:10;7.30;;;4.00;;
12554;SDS011;6343;50.868;4.700;2023-05-02T11:17:06;5.07;;;3.20;;
12554;SDS011;6343;50.868;4.700;2023-05-02T11:24:49;6.63;;;3.50;;
12554;SDS011;6343;50.868;4.700;2023-05-02T11:29:54;9.20;;;3.63;;
12554;SDS011;6343;50.868;4.700;2023-05-02T11:32:20;4.80;;;3.43;;
12554;SDS011;6343;50.868;4.700;2023-05-02T11:34:47;7.80;;;3.80;;
12554;SDS011;6343;50.868;4.700;2023-05-02T11:37:17;5.63;;;2.83;;
12554;SDS011;6343;50.868;4.700;2023-05-02T11:39:44;6.23;;;2.60;;
12554;SDS011;6343;50.868;4.700;2023-05-02T11:42:28;5.23;;;2.90;;
12554;SDS011;6343;50.868;4.700;2023-05-02T11:44:59;6.90;;;2.83;;
12554;SDS011;6343;50.868;4.700;2023-05-02T11:47:25;3.90;;;2.60;;
12554;SDS011;6343;50.868;4.700;2023-05-02T11:49:53;4.60;;;3.27;;
12554;SDS011;6343;50.868;4.700;2023-05-02T11:52:21;7.53;;;2.60;;
12554;SDS011;6343;50.868;4.700;2023-05-02T11:54:47;9.40;;;2.87;;
12554;SDS011;6343;50.868;4.700;2023-05-02T11:57:13;3.97;;;2.83;;
12554;SDS011;6343;50.868;4.700;2023-05-02T11:59:50;10.10;;;3.53;;
12554;SDS011;6343;50.868;4.700;2023-05-02T12:02:16;3.57;;;2.80;;
12554;SDS011;6343;50.868;4.700;2023-05-02T12:04:42;6.97;;;2.63;;
12554;SDS011;6343;50.868;4.700;2023-05-02T12:07:09;7.47;;;2.73;;
12554;SDS011;6343;50.868;4.700;2023-05-02T12:09:35;9.37;;;2.63;;
12554;SDS011;6343;50.868;4.700;2023-05-02T12:12:01;6.73;;;3.40;;
12554;SDS011;6343;50.868;4.700;2023-05-02T12:14:28;7.50;;;2.70;;
12554;SDS011;6343;50.868;4.700;2023-05-02T12:16:54;9.07;;;3.53;;
12554;SDS011;6343;50.868;4.700;2023-05-02T12:19:21;6.37;;;3.00;;
12554;SDS011;6343;50.868;4.700;2023-05-02T12:21:47;8.53;;;3.20;;
12554;SDS011;6343;50.868;4.700;2023-05-02T12:24:14;5.93;;;2.63;;
12554;SDS011;6343;50.868;4.700;2023-05-02T12:26:40;6.10;;;3.13;;
12554;SDS011;6343;50.868;4.700;2023-05-02T12:29:06;8.53;;;3.00;;
12554;SDS011;6343;50.868;4.700;2023-05-02T12:31:33;8.30;;;2.90;;
12554;SDS011;6343;50.868;4.700;2023-05-02T12:33:59;5.30;;;3.23;;
12554;SDS011;6343;50.868;4.700;2023-05-02T12:36:25;5.43;;;2.90;;
12554;SDS011;6343;50.868;4.700;2023-05-02T12:38:55;6.93;;;3.40;;
12554;SDS011;6343;50.868;4.700;2023-05-02T12:41:33;6.70;;;3.27;;
12554;SDS011;6343;50.868;4.700;2023-05-02T12:43:59;12.53;;;3.43;;
12554;SDS011;6343;50.868;4.700;2023-05-02T12:46:25;6.97;;;3.47;;
12554;SDS011;6343;50.868;4.700;2023-05-02T12:49:08;6.03;;;3.30;;
12554;SDS011;6343;50.868;4.700;2023-05-02T12:51:36;5.47;;;3.10;;
12554;SDS011;6343;50.868;4.700;2023-05-02T12:54:03;13.63;;;3.47;;
12554;SDS011;6343;50.868;4.700;2023-05-02T12:56:48;6.07;;;2.87;;
12554;SDS011;6343;50.868;4.700;2023-05-02T12:59:31;6.90;;;2.60;;
12554;SDS011;6343;50.868;4.700;2023-05-02T13:01:58;5.87;;;2.70;;
12554;SDS011;6343;50.868;4.700;2023-05-02T13:04:37;8.03;;;3.17;;
12554;SDS011;6343;50.868;4.700;2023-05-02T13:07:04;5.90;;;3.03;;
12554;SDS011;6343;50.868;4.700;2023-05-02T13:09:31;14.30;;;3.47;;
12554;SDS011;6343;50.868;4.700;2023-05-02T13:11:57;5.70;;;2.90;;
12554;SDS011;6343;50.868;4.700;2023-05-02T13:14:26;4.80;;;2.63;;
12554;SDS011;6343;50.868;4.700;2023-05-02T13:16:52;10.27;;;3.10;;
12554;SDS011;6343;50.868;4.700;2023-05-02T13:19:19;5.87;;;2.90;;
12554;SDS011;6343;50.868;4.700;2023-05-02T13:21:45;8.90;;;3.27;;
12554;SDS011;6343;50.868;4.700;2023-05-02T13:24:11;8.10;;;3.33;;
12554;SDS011;6343;50.868;4.700;2023-05-02T13:26:39;5.57;;;2.70;;
12554;SDS011;6343;50.868;4.700;2023-05-02T13:29:05;7.63;;;3.43;;
12554;SDS011;6343;50.868;4.700;2023-05-02T13:31:33;8.00;;;3.10;;
12554;SDS011;6343;50.868;4.700;2023-05-02T13:33:59;9.20;;;3.80;;
12554;SDS011;6343;50.868;4.700;2023-05-02T13:36:26;6.73;;;3.20;;
12554;SDS011;6343;50.868;4.700;2023-05-02T13:38:52;14.07;;;3.80;;
12554;SDS011;6343;50.868;4.700;2023-05-02T13:41:18;5.83;;;3.07;;
12554;SDS011;6343;50.868;4.700;2023-05-02T13:43:45;5.07;;;3.23;;
12554;SDS011;6343;50.868;4.700;2023-05-02T13:46:11;6.53;;;3.30;;
12554;SDS011;6343;50.868;4.700;2023-05-02T13:48:37;7.40;;;3.93;;
12554;SDS011;6343;50.868;4.700;2023-05-02T13:51:03;5.40;;;3.70;;
12554;SDS011;6343;50.868;4.700;2023-05-02T13:53:29;5.90;;;3.60;;
12554;SDS011;6343;50.868;4.700;2023-05-02T13:55:56;8.80;;;3.90;;
12554;SDS011;6343;50.868;4.700;2023-05-02T13:58:22;5.33;;;3.63;;
12554;SDS011;6343;50.868;4.700;2023-05-02T14:00:48;7.70;;;3.33;;
12554;SDS011;6343;50.868;4.700;2023-05-02T14:03:14;6.37;;;3.70;;
12554;SDS011;6343;50.868;4.700;2023-05-02T14:05:40;10.03;;;3.80;;
12554;SDS011;6343;50.868;4.700;2023-05-02T14:08:08;8.97;;;3.03;;
12554;SDS011;6343;50.868;4.700;2023-05-02T14:10:34;7.57;;;3.63;;
12554;SDS011;6343;50.868;4.700;2023-05-02T14:13:03;6.60;;;3.17;;
12554;SDS011;6343;50.868;4.700;2023-05-02T14:15:29;6.63;;;4.00;;
12554;SDS011;6343;50.868;4.700;2023-05-02T14:17:55;5.37;;;3.37;;
12554;SDS011;6343;50.868;4.700;2023-05-02T14:20:21;9.30;;;3.33;;
12554;SDS011;6343;50.868;4.700;2023-05-02T14:22:48;6.13;;;3.10;;
12554;SDS011;6343;50.868;4.700;2023-05-02T14:25:14;7.27;;;3.27;;
12554;SDS011;6343;50.868;4.700;2023-05-02T14:27:44;7.23;;;3.50;;
12554;SDS011;6343;50.868;4.700;2023-05-02T14:30:10;7.33;;;3.40;;
12554;SDS011;6343;50.868;4.700;2023-05-02T14:32:36;6.97;;;3.50;;
12554;SDS011;6343;50.868;4.700;2023-05-02T14:35:02;8.30;;;3.70;;
12554;SDS011;6343;50.868;4.700;2023-05-02T14:37:28;6.47;;;3.20;;
12554;SDS011;6343;50.868;4.700;2023-05-02T14:39:54;9.13;;;3.73;;
12554;SDS011;6343;50.868;4.700;2023-05-02T14:42:22;10.50;;;3.53;;
12554;SDS011;6343;50.868;4.700;2023-05-02T14:44:49;7.80;;;3.10;;
12554;SDS011;6343;50.868;4.700;2023-05-02T14:47:15;5.23;;;3.33;;
12554;SDS011;6343;50.868;4.700;2023-05-02T14:49:41;9.90;;;4.70;;
12554;SDS011;6343;50.868;4.700;2023-05-02T14:52:08;6.30;;;3.13;;
12554;SDS011;6343;50.868;4.700;2023-05-02T14:54:34;10.57;;;3.93;;
12554;SDS011;6343;50.868;4.700;2023-05-02T14:57:00;7.60;;;4.00;;
12554;SDS011;6343;50.868;4.700;2023-05-02T14:59:27;8.23;;;4.00;;
12554;SDS011;6343;50.868;4.700;2023-05-02T15:01:54;8.17;;;3.47;;
12554;SDS011;6343;50.868;4.700;2023-05-02T15:04:20;7.37;;;3.23;;
12554;SDS011;6343;50.868;4.700;2023-05-02T15:06:46;14.10;;;4.07;;
12554;SDS011;6343;50.868;4.700;2023-05-02T15:09:12;12.10;;;3.80;;
12554;SDS011;6343;50.868;4.700;2023-05-02T15:11:41;7.40;;;3.73;;
12554;SDS011;6343;50.868;4.700;2023-05-02T15:14:07;9.13;;;3.83;;
12554;SDS011;6343;50.868;4.700;2023-05-02T15:16:33;5.00;;;3.20;;
12554;SDS011;6343;50.868;4.700;2023-05-02T15:19:01;6.23;;;3.70;;
12554;SDS011;6343;50.868;4.700;2023-05-02T15:21:27;4.50;;;3.50;;
12554;SDS011;6343;50.868;4.700;2023-05-02T15:23:54;9.37;;;3.67;;